Time;durP1;ratioP1;P1;durP2;ratioP2;P2;SDS_P1;SDS_P2;PMS_P1;PMS_P2;Temp;Humidity;BMP_temperature;BMP_pressure;BME280_temperature;BME280_humidity;BME280_pressure;Samples;Min_cycle;Max_cycle;Signal;HPM_P1;HPM_P2
2022/08/02 00:01:39;;;;;;;;;;;21.10;90.50;;;;;;4975128;28;19937;-84
2022/08/02 00:04:07;;;;;;;;;;;21.10;90.90;;;;;;4971869;28;20005;-85
2022/08/02 00:06:35;;;;;;;;;;;21.00;90.80;;;;;;4941358;28;20511;-85
2022/08/02 00:09:03;;;;;;;;;;;21.00;90.80;;;;;;4973828;28;20302;-85
2022/08/02 00:11:31;;;;;;;;;;;21.00;90.80;;;;;;4967461;28;19926;-85
2022/08/02 00:13:58;;;;;;;;;;;20.90;90.90;;;;;;4961455;28;19942;-85
2022/08/02 00:16:26;;;;;;;;;;;21.00;90.90;;;;;;4970108;28;20394;-85
2022/08/02 00:19:05;;;;;;;;;;;20.90;91.10;;;;;;4954869;28;19942;-85
2022/08/02 00:21:33;;;;;;;;;;;21.20;91.10;;;;;;4972242;28;19933;-86
2022/08/02 00:24:02;;;;;;;;;;;20.90;91.10;;;;;;4943543;29;20214;-84
2022/08/02 00:26:49;;;;;;;;;;;21.40;91.20;;;;;;4969274;28;19934;-85
2022/08/02 00:29:17;;;;;;;;;;;20.90;91.40;;;;;;4975171;28;19926;-85
2022/08/02 00:31:45;;;;;;;;;;;20.80;91.40;;;;;;4974100;28;20781;-86
2022/08/02 00:34:13;;;;;;;;;;;20.80;91.30;;;;;;4974048;28;19934;-86
2022/08/02 00:36:58;;;;;;;;;;;20.80;91.30;;;;;;4949633;28;19938;-85
2022/08/02 00:39:25;;;;;;;;;;;20.80;91.40;;;;;;4975689;28;20382;-86
2022/08/02 00:42:02;;;;;;;;;;;20.80;91.70;;;;;;4972621;28;20405;-86
2022/08/02 00:44:30;;;;;;;;;;;20.80;91.80;;;;;;4972967;28;19926;-86
2022/08/02 00:46:58;;;;;;;;;;;20.70;91.60;;;;;;4973637;28;19926;-85
2022/08/02 00:49:25;;;;;;;;;;;20.80;91.80;;;;;;4956010;28;20302;-85
2022/08/02 00:51:54;;;;;;;;;;;20.70;91.60;;;;;;4971510;28;20174;-86
2022/08/02 00:54:22;;;;;;;;;;;20.80;91.60;;;;;;4977090;28;19937;-85
2022/08/02 00:56:50;;;;;;;;;;;20.80;91.80;;;;;;4976692;28;19926;-85
2022/08/02 00:59:17;;;;;;;;;;;20.80;91.70;;;;;;4988385;28;19926;-85
2022/08/02 01:01:45;;;;;;;;;;;20.80;91.70;;;;;;4982053;28;19937;-86
2022/08/02 01:04:25;;;;;;;;;;;20.80;92.10;;;;;;4961564;28;19930;-85
2022/08/02 01:06:59;;;;;;;;;;;20.80;91.90;;;;;;4978331;28;20405;-85
2022/08/02 01:09:27;;;;;;;;;;;20.80;91.80;;;;;;4977876;28;19957;-86
2022/08/02 01:11:54;;;;;;;;;;;20.80;92.00;;;;;;4977345;28;19934;-85
2022/08/02 01:14:24;;;;;;;;;;;20.80;92.30;;;;;;4960664;28;20091;-85
2022/08/02 01:16:55;;;;;;;;;;;20.70;92.40;;;;;;4945677;28;19957;-85
2022/08/02 01:19:22;;;;;;;;;;;20.70;92.40;;;;;;4978541;28;19930;-84
2022/08/02 01:21:56;;;;;;;;;;;20.70;92.40;;;;;;4959409;28;19930;-85
2022/08/02 01:24:42;;;;;;;;;;;20.70;92.40;;;;;;4976698;28;20325;-85
2022/08/02 01:27:19;;;;;;;;;;;20.60;92.60;;;;;;4960834;28;19926;-85
2022/08/02 01:29:52;;;;;;;;;;;20.70;92.80;;;;;;4961154;28;19926;-84
2022/08/02 01:32:24;;;;;;;;;;;20.60;92.70;;;;;;4961383;28;19930;-85
2022/08/02 01:34:55;;;;;;;;;;;21.10;93.00;;;;;;4978012;28;20249;-85
2022/08/02 01:37:34;;;;;;;;;;;20.40;93.10;;;;;;4976996;28;19926;-85
2022/08/02 01:40:04;;;;;;;;;;;20.60;93.00;;;;;;4978521;28;20297;-85
2022/08/02 01:42:32;;;;;;;;;;;20.60;93.20;;;;;;4982908;28;20456;-85
2022/08/02 01:45:01;;;;;;;;;;;20.60;92.90;;;;;;4959224;28;19941;-85
2022/08/02 01:47:34;;;;;;;;;;;20.50;93.40;;;;;;4980912;28;20021;-85
2022/08/02 01:50:02;;;;;;;;;;;20.50;93.20;;;;;;4979875;28;20390;-84
2022/08/02 01:52:32;;;;;;;;;;;20.50;93.40;;;;;;4980066;28;19937;-84
2022/08/02 01:55:07;;;;;;;;;;;20.50;93.40;;;;;;4957892;29;19937;-85
2022/08/02 01:57:52;;;;;;;;;;;20.50;93.40;;;;;;4976696;28;20396;-85
2022/08/02 02:00:21;;;;;;;;;;;20.50;93.80;;;;;;4976654;28;19930;-84
2022/08/02 02:02:51;;;;;;;;;;;20.50;93.60;;;;;;4972096;28;20298;-85
2022/08/02 02:05:21;;;;;;;;;;;20.40;93.60;;;;;;4969969;28;19930;-84
2022/08/02 02:07:51;;;;;;;;;;;20.40;93.90;;;;;;4978648;28;20302;-85
2022/08/02 02:10:21;;;;;;;;;;;20.40;93.90;;;;;;4988703;28;19937;-85
2022/08/02 02:12:50;;;;;;;;;;;20.40;93.90;;;;;;4982913;28;19926;-84
2022/08/02 02:15:18;;;;;;;;;;;20.40;93.90;;;;;;4975762;28;19944;-85
2022/08/02 02:17:48;;;;;;;;;;;20.30;94.00;;;;;;4961722;28;19934;-85
2022/08/02 02:20:36;;;;;;;;;;;20.30;93.90;;;;;;4976616;28;19933;-85
2022/08/02 02:23:04;;;;;;;;;;;20.30;94.30;;;;;;4961745;28;20275;-84
2022/08/02 02:25:36;;;;;;;;;;;20.30;94.50;;;;;;4951238;28;20377;-85
2022/08/02 02:28:21;;;;;;;;;;;20.20;94.40;;;;;;4978485;28;19934;-85
2022/08/02 02:30:52;;;;;;;;;;;20.30;94.60;;;;;;4964536;28;19941;-85
2022/08/02 02:33:21;;;;;;;;;;;20.20;94.70;;;;;;4977822;28;19946;-85
2022/08/02 02:35:56;;;;;;;;;;;20.20;94.60;;;;;;4965668;28;19933;-85
2022/08/02 02:38:26;;;;;;;;;;;20.20;94.80;;;;;;4964608;28;19930;-85
2022/08/02 02:40:55;;;;;;;;;;;20.10;94.90;;;;;;4991813;28;19926;-85
2022/08/02 02:43:27;;;;;;;;;;;20.20;94.70;;;;;;4973907;28;20242;-85
2022/08/02 02:45:55;;;;;;;;;;;20.20;94.80;;;;;;4944762;29;19946;-85
2022/08/02 02:48:23;;;;;;;;;;;20.20;95.00;;;;;;4977733;28;19930;-85
2022/08/02 02:50:52;;;;;;;;;;;20.20;95.30;;;;;;4979066;28;19933;-85
2022/08/02 02:53:21;;;;;;;;;;;20.20;95.10;;;;;;4979144;28;19926;-85
2022/08/02 02:55:49;;;;;;;;;;;20.20;95.00;;;;;;4979795;28;19929;-84
2022/08/02 02:58:30;;;;;;;;;;;20.20;95.20;;;;;;4979519;28;19926;-86
2022/08/02 03:03:45;;;;;;;;;;;20.20;95.40;;;;;;4978508;28;19999;-84
2022/08/02 03:06:13;;;;;;;;;;;20.20;95.70;;;;;;4982828;28;19930;-85
2022/08/02 03:08:42;;;;;;;;;;;20.10;95.40;;;;;;4984226;28;19968;-85
2022/08/02 03:11:10;;;;;;;;;;;20.10;95.40;;;;;;4980300;28;19926;-84
2022/08/02 03:13:38;;;;;;;;;;;20.10;95.60;;;;;;4986920;28;20358;-85
2022/08/02 03:16:07;;;;;;;;;;;20.10;95.80;;;;;;4986346;28;19926;-85
2022/08/02 03:18:35;;;;;;;;;;;20.10;95.70;;;;;;4986492;28;19933;-84
2022/08/02 03:21:05;;;;;;;;;;;20.00;95.80;;;;;;4981927;28;19926;-85
2022/08/02 03:23:33;;;;;;;;;;;20.10;96.00;;;;;;4980910;28;19926;-85
2022/08/02 03:26:01;;;;;;;;;;;20.10;95.70;;;;;;4984042;28;19936;-85
2022/08/02 03:28:29;;;;;;;;;;;20.10;95.70;;;;;;4983596;28;19922;-85
2022/08/02 03:30:57;;;;;;;;;;;20.00;95.70;;;;;;4977380;28;19926;-85
2022/08/02 03:33:25;;;;;;;;;;;20.00;95.50;;;;;;4975279;28;19982;-85
2022/08/02 03:35:55;;;;;;;;;;;20.00;95.80;;;;;;4976904;28;19933;-86
2022/08/02 03:38:24;;;;;;;;;;;20.00;95.70;;;;;;4980445;28;19926;-85
2022/08/02 03:40:56;;;;;;;;;;;20.00;95.50;;;;;;4978981;28;19926;-85
2022/08/02 03:43:24;;;;;;;;;;;20.00;95.50;;;;;;4989973;28;19926;-84
2022/08/02 03:45:55;;;;;;;;;;;20.00;95.40;;;;;;4978979;28;19922;-85
2022/08/02 03:48:24;;;;;;;;;;;20.00;95.50;;;;;;4980836;28;19927;-85
2022/08/02 03:51:01;;;;;;;;;;;20.00;95.40;;;;;;4980359;28;20003;-85
2022/08/02 03:53:29;;;;;;;;;;;19.90;95.60;;;;;;4961162;28;19926;-85
2022/08/02 03:55:57;;;;;;;;;;;19.90;95.80;;;;;;4977581;28;19937;-84
2022/08/02 03:58:25;;;;;;;;;;;19.90;95.90;;;;;;4978845;28;20279;-85
2022/08/02 04:00:53;;;;;;;;;;;19.80;96.00;;;;;;4979388;28;19933;-85
2022/08/02 04:03:21;;;;;;;;;;;19.70;96.10;;;;;;4978513;28;19930;-85
2022/08/02 04:05:49;;;;;;;;;;;19.70;96.30;;;;;;4977996;28;19926;-85
2022/08/02 04:08:32;;;;;;;;;;;19.70;96.70;;;;;;4981105;28;19930;-85
2022/08/02 04:13:51;;;;;;;;;;;19.70;96.60;;;;;;4985880;28;19937;-84
2022/08/02 04:16:28;;;;;;;;;;;19.60;96.90;;;;;;4962435;28;19926;-84
2022/08/02 04:18:59;;;;;;;;;;;19.60;97.00;;;;;;4966443;28;19933;-85
2022/08/02 04:21:30;;;;;;;;;;;19.60;97.50;;;;;;4978846;28;19934;-85
2022/08/02 04:24:19;;;;;;;;;;;19.50;97.50;;;;;;4966302;28;19926;-85
2022/08/02 04:26:53;;;;;;;;;;;19.50;97.80;;;;;;4958509;28;19927;-84
2022/08/02 04:29:21;;;;;;;;;;;19.50;98.10;;;;;;4976208;28;19926;-85
2022/08/02 04:31:50;;;;;;;;;;;19.50;98.00;;;;;;4976853;28;19942;-85
2022/08/02 04:34:17;;;;;;;;;;;19.50;98.10;;;;;;4960437;28;19930;-85
2022/08/02 04:36:46;;;;;;;;;;;19.30;98.40;;;;;;4977015;28;20285;-85
2022/08/02 04:39:13;;;;;;;;;;;19.50;98.30;;;;;;4963994;28;19933;-85
2022/08/02 04:41:42;;;;;;;;;;;19.50;98.50;;;;;;4977742;28;19999;-84
2022/08/02 04:44:11;;;;;;;;;;;19.40;99.50;;;;;;4977215;28;19926;-85
2022/08/02 04:46:41;;;;;;;;;;;19.40;99.00;;;;;;4981051;28;19926;-84
2022/08/02 04:49:09;;;;;;;;;;;19.50;99.30;;;;;;4981227;28;19922;-84
2022/08/02 04:51:38;;;;;;;;;;;19.40;99.50;;;;;;4978706;28;19933;-85
2022/08/02 04:54:06;;;;;;;;;;;19.50;99.30;;;;;;4961197;28;20010;-85
2022/08/02 04:56:36;;;;;;;;;;;19.50;99.90;;;;;;4958718;28;19933;-85
2022/08/02 04:59:05;;;;;;;;;;;19.50;99.70;;;;;;4974847;28;19949;-84
2022/08/02 05:01:34;;;;;;;;;;;19.50;99.70;;;;;;4975889;28;19926;-84
2022/08/02 05:04:02;;;;;;;;;;;19.50;99.90;;;;;;4976292;28;19934;-85
2022/08/02 05:06:30;;;;;;;;;;;19.50;99.90;;;;;;4976024;28;19937;-84
2022/08/02 05:08:58;;;;;;;;;;;19.40;99.90;;;;;;4983277;28;19926;-85
2022/08/02 05:11:28;;;;;;;;;;;19.50;99.90;;;;;;4981045;28;19927;-84
2022/08/02 05:14:04;;;;;;;;;;;19.50;99.90;;;;;;4975241;28;19926;-85
2022/08/02 05:16:31;;;;;;;;;;;19.50;99.90;;;;;;4975790;28;19933;-85
2022/08/02 05:18:59;;;;;;;;;;;19.50;99.90;;;;;;4961235;28;19930;-86
2022/08/02 05:21:27;;;;;;;;;;;19.50;99.90;;;;;;4977542;28;19937;-85
2022/08/02 05:23:56;;;;;;;;;;;19.80;99.90;;;;;;4977576;28;20301;-85
2022/08/02 05:26:23;;;;;;;;;;;19.50;99.90;;;;;;4977676;28;20458;-85
2022/08/02 05:28:51;;;;;;;;;;;19.60;99.90;;;;;;4977874;28;20321;-85
2022/08/02 05:31:19;;;;;;;;;;;19.60;99.90;;;;;;4960723;28;19933;-86
2022/08/02 05:33:46;;;;;;;;;;;19.60;99.90;;;;;;4975438;28;19934;-83
2022/08/02 05:36:14;;;;;;;;;;;19.60;99.90;;;;;;4977127;28;20269;-86
2022/08/02 05:38:42;;;;;;;;;;;19.60;99.90;;;;;;4963305;28;19934;-85
2022/08/02 05:41:17;;;;;;;;;;;19.70;99.90;;;;;;4630859;28;10000777;-85
2022/08/02 05:43:47;;;;;;;;;;;19.70;99.90;;;;;;4975626;28;20318;-85
2022/08/02 05:46:15;;;;;;;;;;;19.80;99.90;;;;;;4974097;28;19930;-85
2022/08/02 05:48:43;;;;;;;;;;;19.80;99.90;;;;;;4975270;28;19933;-85
2022/08/02 05:51:18;;;;;;;;;;;19.80;99.90;;;;;;4965313;28;19944;-86
2022/08/02 05:54:00;;;;;;;;;;;19.90;99.90;;;;;;4979689;28;19933;-85
2022/08/02 05:56:37;;;;;;;;;;;19.90;99.90;;;;;;4964298;28;19930;-86
2022/08/02 05:59:12;;;;;;;;;;;20.00;99.90;;;;;;4978861;28;19929;-85
2022/08/02 06:01:41;;;;;;;;;;;20.00;99.90;;;;;;4950972;28;20279;-86
2022/08/02 06:04:12;;;;;;;;;;;20.10;99.90;;;;;;4978346;28;20393;-85
2022/08/02 06:06:42;;;;;;;;;;;20.20;99.90;;;;;;4950883;28;20290;-86
2022/08/02 06:09:14;;;;;;;;;;;20.30;99.90;;;;;;4963388;28;19965;-85
2022/08/02 06:11:46;;;;;;;;;;;20.40;99.90;;;;;;4948157;28;20148;-85
2022/08/02 06:14:35;;;;;;;;;;;20.50;99.90;;;;;;4981332;28;20357;-87
2022/08/02 06:17:05;;;;;;;;;;;20.60;99.90;;;;;;4963917;28;20281;-86
2022/08/02 06:19:32;;;;;;;;;;;20.60;99.90;;;;;;4951519;28;20404;-84
2022/08/02 06:22:20;;;;;;;;;;;20.70;99.90;;;;;;4961551;28;19930;-84
2022/08/02 06:25:12;;;;;;;;;;;20.70;99.90;;;;;;4978687;28;19926;-84
2022/08/02 06:28:00;;;;;;;;;;;20.80;99.90;;;;;;4960637;28;19926;-84
2022/08/02 06:30:29;;;;;;;;;;;20.80;99.90;;;;;;4969950;28;19926;-85
2022/08/02 06:33:00;;;;;;;;;;;20.80;99.90;;;;;;4978758;28;19937;-85
2022/08/02 06:35:33;;;;;;;;;;;20.80;99.90;;;;;;4975859;28;19934;-85
2022/08/02 06:38:02;;;;;;;;;;;20.80;99.90;;;;;;4977804;28;19929;-84
2022/08/02 06:40:35;;;;;;;;;;;20.90;99.90;;;;;;4945120;28;19950;-84
2022/08/02 06:43:02;;;;;;;;;;;20.40;99.90;;;;;;4981189;28;19934;-85
2022/08/02 06:45:31;;;;;;;;;;;21.00;99.90;;;;;;4983947;28;19933;-85
2022/08/02 06:47:59;;;;;;;;;;;21.00;99.90;;;;;;4955463;28;19927;-87
2022/08/02 06:50:26;;;;;;;;;;;21.10;99.90;;;;;;4969074;28;19949;-82
2022/08/02 06:52:54;;;;;;;;;;;21.10;99.90;;;;;;4969465;28;20306;-84
2022/08/02 06:55:21;;;;;;;;;;;21.20;99.90;;;;;;4970143;28;20337;-85
2022/08/02 06:57:49;;;;;;;;;;;21.30;99.90;;;;;;4971274;28;20738;-84
2022/08/02 07:00:19;;;;;;;;;;;21.20;99.90;;;;;;4969725;28;19938;-86
2022/08/02 07:02:48;;;;;;;;;;;21.30;99.90;;;;;;4959564;28;19957;-84
2022/08/02 07:05:15;;;;;;;;;;;21.30;99.90;;;;;;4954523;28;20309;-84
2022/08/02 07:07:43;;;;;;;;;;;21.30;99.90;;;;;;4956579;28;19938;-85
2022/08/02 07:10:12;;;;;;;;;;;21.40;99.90;;;;;;4967218;28;19930;-84
2022/08/02 07:12:39;;;;;;;;;;;21.50;99.80;;;;;;4969106;28;19930;-85
2022/08/02 07:15:08;;;;;;;;;;;21.60;99.60;;;;;;4961393;28;19926;-84
2022/08/02 07:17:36;;;;;;;;;;;21.70;99.50;;;;;;4955149;28;20039;-86
2022/08/02 07:20:04;;;;;;;;;;;21.80;99.30;;;;;;4964972;28;19930;-85
2022/08/02 07:22:32;;;;;;;;;;;21.90;99.20;;;;;;4947392;28;19933;-85
2022/08/02 07:25:00;;;;;;;;;;;22.00;99.10;;;;;;4969144;28;19937;-84
2022/08/02 07:27:28;;;;;;;;;;;22.00;99.00;;;;;;4956497;28;19930;-85
2022/08/02 07:29:56;;;;;;;;;;;22.00;98.80;;;;;;4969734;28;19933;-85
2022/08/02 07:32:25;;;;;;;;;;;22.10;98.80;;;;;;4963698;28;19931;-85
2022/08/02 07:34:52;;;;;;;;;;;22.20;98.70;;;;;;4951613;28;19930;-85
2022/08/02 07:37:23;;;;;;;;;;;22.40;98.60;;;;;;4968118;28;19933;-87
2022/08/02 07:40:11;;;;;;;;;;;22.40;98.40;;;;;;4957972;28;19930;-87
2022/08/02 07:42:42;;;;;;;;;;;22.40;98.40;;;;;;4955307;28;19950;-85
2022/08/02 07:45:11;;;;;;;;;;;22.40;98.30;;;;;;4974698;28;19937;-85
2022/08/02 07:47:39;;;;;;;;;;;22.50;98.10;;;;;;4961371;28;20390;-84
2022/08/02 07:50:07;;;;;;;;;;;22.60;98.20;;;;;;4965955;28;19937;-85
2022/08/02 07:52:35;;;;;;;;;;;22.60;98.00;;;;;;4959305;28;20413;-86
2022/08/02 07:55:05;;;;;;;;;;;22.70;98.10;;;;;;4958934;28;19934;-84
2022/08/02 07:57:33;;;;;;;;;;;22.80;97.80;;;;;;4940874;28;19941;-85
2022/08/02 08:00:00;;;;;;;;;;;22.90;97.50;;;;;;4959947;28;19926;-84
2022/08/02 08:02:38;;;;;;;;;;;22.90;97.50;;;;;;4962247;28;19937;-84
2022/08/02 08:05:05;;;;;;;;;;;22.90;97.30;;;;;;4960445;28;19926;-84
2022/08/02 08:07:33;;;;;;;;;;;22.90;97.30;;;;;;4959090;28;20270;-84
2022/08/02 08:10:02;;;;;;;;;;;22.90;97.30;;;;;;4966917;28;19934;-85
2022/08/02 08:12:29;;;;;;;;;;;23.00;97.30;;;;;;4948934;28;20392;-84
2022/08/02 08:14:57;;;;;;;;;;;23.00;97.20;;;;;;4954223;28;19930;-85
2022/08/02 08:17:25;;;;;;;;;;;23.00;97.10;;;;;;4964302;28;19934;-85
2022/08/02 08:19:52;;;;;;;;;;;22.90;97.10;;;;;;4958134;28;20019;-85
2022/08/02 08:22:19;;;;;;;;;;;23.00;97.20;;;;;;4957417;28;19927;-85
2022/08/02 08:24:47;;;;;;;;;;;23.10;97.00;;;;;;4968028;28;19930;-84
2022/08/02 08:27:16;;;;;;;;;;;23.20;97.00;;;;;;4955683;28;19930;-85
2022/08/02 08:29:44;;;;;;;;;;;23.30;96.70;;;;;;4966952;28;20309;-85
2022/08/02 08:32:12;;;;;;;;;;;23.40;96.50;;;;;;4947591;28;19937;-85
2022/08/02 08:34:44;;;;;;;;;;;23.50;96.50;;;;;;4963086;28;20297;-85
2022/08/02 08:37:13;;;;;;;;;;;23.50;96.30;;;;;;4953578;28;20344;-84
2022/08/02 08:39:45;;;;;;;;;;;23.60;96.20;;;;;;4957095;28;19927;-84
2022/08/02 08:42:29;;;;;;;;;;;23.70;96.10;;;;;;4966743;28;19945;-83
2022/08/02 08:44:58;;;;;;;;;;;23.70;96.30;;;;;;4945287;28;20580;-85
2022/08/02 08:47:35;;;;;;;;;;;23.70;95.90;;;;;;4939274;28;19958;-85
2022/08/02 08:50:04;;;;;;;;;;;23.80;95.80;;;;;;4943404;28;19930;-84
2022/08/02 08:52:40;;;;;;;;;;;23.80;95.70;;;;;;4949898;28;19926;-83
2022/08/02 08:55:10;;;;;;;;;;;23.80;95.60;;;;;;4968453;28;20496;-86
2022/08/02 08:57:40;;;;;;;;;;;23.80;95.60;;;;;;4954152;28;20775;-87
2022/08/02 09:00:09;;;;;;;;;;;24.00;95.60;;;;;;4950185;28;19930;-85
2022/08/02 09:02:38;;;;;;;;;;;24.10;95.30;;;;;;4937443;28;19933;-86
2022/08/02 09:05:08;;;;;;;;;;;24.20;95.20;;;;;;4955431;28;19926;-85
2022/08/02 09:07:36;;;;;;;;;;;24.20;94.90;;;;;;4967039;28;20409;-87
2022/08/02 09:10:22;;;;;;;;;;;24.20;95.00;;;;;;4956385;28;19961;-86
2022/08/02 09:13:06;;;;;;;;;;;24.10;95.00;;;;;;4983451;28;19926;-88
2022/08/02 09:15:58;;;;;;;;;;;24.00;95.10;;;;;;4971239;28;19938;-87
2022/08/02 09:18:38;;;;;;;;;;;24.10;95.20;;;;;;4958901;28;19933;-84
2022/08/02 09:21:09;;;;;;;;;;;24.10;95.10;;;;;;4968000;28;19926;-85
2022/08/02 09:23:42;;;;;;;;;;;24.20;95.00;;;;;;4934477;28;19930;-85
2022/08/02 09:26:14;;;;;;;;;;;24.30;94.70;;;;;;4931266;28;19931;-86
2022/08/02 09:28:43;;;;;;;;;;;24.30;94.60;;;;;;4951696;28;19934;-86
2022/08/02 09:31:12;;;;;;;;;;;24.30;94.70;;;;;;4949666;28;19948;-84
2022/08/02 09:33:40;;;;;;;;;;;24.30;94.50;;;;;;4977121;28;19933;-85
2022/08/02 09:36:11;;;;;;;;;;;24.30;94.80;;;;;;4975297;28;19938;-83
2022/08/02 09:38:39;;;;;;;;;;;24.20;94.60;;;;;;4956357;28;19941;-85
2022/08/02 09:41:19;;;;;;;;;;;24.10;94.60;;;;;;4966699;28;19933;-85
2022/08/02 09:43:48;;;;;;;;;;;24.10;94.70;;;;;;4934673;28;19949;-81
2022/08/02 09:46:42;;;;;;;;;;;24.10;94.70;;;;;;4958112;28;20378;-84
2022/08/02 09:49:11;;;;;;;;;;;24.10;94.90;;;;;;4966894;28;19930;-87
2022/08/02 09:51:47;;;;;;;;;;;24.20;94.90;;;;;;4964016;28;19937;-86
2022/08/02 09:54:26;;;;;;;;;;;24.30;94.70;;;;;;4954979;28;19930;-84
2022/08/02 09:56:55;;;;;;;;;;;24.30;94.70;;;;;;4964883;28;19934;-84
2022/08/02 09:59:24;;;;;;;;;;;24.30;94.70;;;;;;4973105;28;19934;-82
2022/08/02 10:01:53;;;;;;;;;;;24.40;94.60;;;;;;4972700;28;19934;-85
2022/08/02 10:04:29;;;;;;;;;;;24.40;94.70;;;;;;4968000;28;19934;-85
2022/08/02 10:06:58;;;;;;;;;;;24.40;94.60;;;;;;4965908;28;19930;-85
2022/08/02 10:09:27;;;;;;;;;;;24.40;94.50;;;;;;4965806;28;19930;-86
2022/08/02 10:11:55;;;;;;;;;;;24.50;94.60;;;;;;4951644;28;19930;-86
2022/08/02 10:14:24;;;;;;;;;;;24.50;94.50;;;;;;4966750;28;19940;-84
2022/08/02 10:16:52;;;;;;;;;;;24.60;94.40;;;;;;4969104;28;19934;-84
2022/08/02 10:19:20;;;;;;;;;;;24.60;94.30;;;;;;4947391;28;20419;-85
2022/08/02 10:22:09;;;;;;;;;;;24.60;94.50;;;;;;4968512;28;19951;-86
2022/08/02 10:24:38;;;;;;;;;;;24.60;94.10;;;;;;4978798;28;19934;-87
2022/08/02 10:27:18;;;;;;;;;;;24.60;94.20;;;;;;4967128;28;19964;-85
2022/08/02 10:29:48;;;;;;;;;;;24.60;94.30;;;;;;4966999;28;19938;-84
2022/08/02 10:32:30;;;;;;;;;;;24.60;94.30;;;;;;4967365;28;19934;-89
2022/08/02 10:35:03;;;;;;;;;;;24.70;94.30;;;;;;4948708;28;19937;-87
2022/08/02 10:37:53;;;;;;;;;;;24.70;94.20;;;;;;4948322;28;19934;-85
2022/08/02 10:40:25;;;;;;;;;;;24.70;94.30;;;;;;4963982;28;19930;-88
2022/08/02 10:42:59;;;;;;;;;;;24.80;94.20;;;;;;4955595;28;19930;-86
2022/08/02 10:45:27;;;;;;;;;;;24.80;94.20;;;;;;4964649;28;19930;-87
2022/08/02 10:48:13;;;;;;;;;;;24.80;94.10;;;;;;4977506;28;21005;-87
2022/08/02 10:50:46;;;;;;;;;;;24.80;94.00;;;;;;4967211;28;19934;-86
2022/08/02 10:53:30;;;;;;;;;;;24.90;94.10;;;;;;4965742;28;19977;-89
2022/08/02 10:55:59;;;;;;;;;;;25.00;93.90;;;;;;4964939;28;19937;-88
2022/08/02 10:58:30;;;;;;;;;;;25.10;93.80;;;;;;4948603;28;19930;-87
2022/08/02 11:01:02;;;;;;;;;;;25.20;93.70;;;;;;4965506;28;19965;-90
2022/08/02 11:03:29;;;;;;;;;;;25.20;93.50;;;;;;4966481;28;20392;-89
2022/08/02 11:06:01;;;;;;;;;;;25.20;93.50;;;;;;4965718;28;19930;-86
2022/08/02 11:08:33;;;;;;;;;;;25.30;93.40;;;;;;4968278;28;19930;-87
2022/08/02 11:11:08;;;;;;;;;;;25.30;93.70;;;;;;4953142;28;19930;-86
2022/08/02 11:14:07;;;;;;;;;;;25.40;93.50;;;;;;4965924;28;19937;-86
2022/08/02 11:16:53;;;;;;;;;;;25.50;93.30;;;;;;4953947;28;20042;-86
2022/08/02 11:19:27;;;;;;;;;;;25.50;93.20;;;;;;4930169;28;19933;-86
2022/08/02 11:22:17;;;;;;;;;;;25.50;93.00;;;;;;4948539;28;19934;-83
2022/08/02 11:24:51;;;;;;;;;;;25.50;93.20;;;;;;4965608;28;19934;-87
2022/08/02 11:27:20;;;;;;;;;;;25.50;93.40;;;;;;4966393;28;19926;-85
2022/08/02 11:29:48;;;;;;;;;;;25.60;93.30;;;;;;4948937;28;19930;-86
2022/08/02 11:32:17;;;;;;;;;;;25.60;93.20;;;;;;4949860;28;19930;-85
2022/08/02 11:34:48;;;;;;;;;;;25.60;93.20;;;;;;4965907;28;19994;-87
2022/08/02 11:37:35;;;;;;;;;;;25.60;93.20;;;;;;4959961;28;19940;-85
2022/08/02 11:40:07;;;;;;;;;;;25.50;93.10;;;;;;4964091;28;20412;-85
2022/08/02 11:42:49;;;;;;;;;;;25.50;93.10;;;;;;4961313;28;19941;-84
2022/08/02 11:45:23;;;;;;;;;;;25.50;93.20;;;;;;4964920;28;19934;-84
2022/08/02 11:47:56;;;;;;;;;;;25.50;93.20;;;;;;4965411;28;19926;-84
2022/08/02 11:50:23;;;;;;;;;;;25.50;93.00;;;;;;4965479;28;19941;-87
2022/08/02 11:52:56;;;;;;;;;;;25.50;92.80;;;;;;4965695;28;20071;-84
2022/08/02 11:55:31;;;;;;;;;;;25.40;92.90;;;;;;4962426;28;19937;-84
2022/08/02 11:57:59;;;;;;;;;;;25.40;92.80;;;;;;4963189;28;19926;-85
2022/08/02 12:00:31;;;;;;;;;;;25.40;92.90;;;;;;4948184;28;19934;-84
2022/08/02 12:02:58;;;;;;;;;;;25.40;92.80;;;;;;4965018;28;19937;-84
2022/08/02 12:05:26;;;;;;;;;;;25.40;92.80;;;;;;4966165;28;19926;-86
2022/08/02 12:08:14;;;;;;;;;;;25.40;92.90;;;;;;4967230;28;19926;-88
2022/08/02 12:10:48;;;;;;;;;;;25.30;92.90;;;;;;4970436;28;20298;-87
2022/08/02 12:13:16;;;;;;;;;;;25.30;93.30;;;;;;4971301;28;19930;-85
2022/08/02 12:15:45;;;;;;;;;;;25.20;93.50;;;;;;4967249;28;19941;-85
2022/08/02 12:21:23;;;;;;;;;;;25.20;93.30;;;;;;4968498;28;19926;-86
2022/08/02 12:23:51;;;;;;;;;;;25.20;93.30;;;;;;4979600;28;19934;-84
2022/08/02 12:26:28;;;;;;;;;;;25.20;93.30;;;;;;4963055;28;19930;-84
2022/08/02 12:28:57;;;;;;;;;;;25.30;93.20;;;;;;4962341;28;20505;-85
2022/08/02 12:31:40;;;;;;;;;;;25.40;93.20;;;;;;4964380;28;20309;-86
2022/08/02 12:34:24;;;;;;;;;;;25.40;93.00;;;;;;4963209;28;19926;-87
2022/08/02 12:37:08;;;;;;;;;;;25.40;93.10;;;;;;4965444;28;19926;-86
2022/08/02 12:39:43;;;;;;;;;;;25.50;93.00;;;;;;4966873;28;19934;-85
2022/08/02 12:42:12;;;;;;;;;;;25.50;93.20;;;;;;4980974;28;19926;-87
2022/08/02 12:44:50;;;;;;;;;;;25.70;93.10;;;;;;4961080;28;19930;-88
2022/08/02 12:47:17;;;;;;;;;;;25.80;93.10;;;;;;4967230;28;19930;-89
2022/08/02 12:50:06;;;;;;;;;;;26.00;92.90;;;;;;4968479;28;19933;-87
2022/08/02 12:52:34;;;;;;;;;;;26.20;92.60;;;;;;4967148;28;19934;-86
2022/08/02 12:55:18;;;;;;;;;;;26.40;92.20;;;;;;4967791;28;20380;-86
2022/08/02 12:57:52;;;;;;;;;;;26.00;92.00;;;;;;4983288;28;20301;-89
2022/08/02 13:00:24;;;;;;;;;;;26.30;91.90;;;;;;4969722;28;19930;-86
2022/08/02 13:02:54;;;;;;;;;;;26.10;92.20;;;;;;4969465;28;19937;-84
2022/08/02 13:05:23;;;;;;;;;;;26.00;92.30;;;;;;4968990;28;19937;-87
2022/08/02 13:07:51;;;;;;;;;;;26.00;92.40;;;;;;4973525;28;19926;-85
2022/08/02 13:10:19;;;;;;;;;;;26.10;92.30;;;;;;4970470;28;19926;-83
2022/08/02 13:12:47;;;;;;;;;;;26.00;92.30;;;;;;4965196;28;19934;-84
2022/08/02 13:15:15;;;;;;;;;;;26.10;92.40;;;;;;4969781;28;19969;-86
2022/08/02 13:18:02;;;;;;;;;;;26.10;92.30;;;;;;4964488;28;19927;-85
2022/08/02 13:20:30;;;;;;;;;;;26.10;92.10;;;;;;4970703;28;19934;-85
2022/08/02 13:22:58;;;;;;;;;;;26.20;91.90;;;;;;4970093;28;19933;-85
2022/08/02 13:25:30;;;;;;;;;;;26.20;92.00;;;;;;4970064;28;20401;-84
2022/08/02 13:27:58;;;;;;;;;;;26.20;91.90;;;;;;4967414;28;19930;-83
2022/08/02 13:30:27;;;;;;;;;;;26.30;91.80;;;;;;4962156;28;19930;-84
2022/08/02 13:32:55;;;;;;;;;;;26.30;91.70;;;;;;4971383;28;19926;-85
2022/08/02 13:35:27;;;;;;;;;;;26.40;91.50;;;;;;4953760;28;19957;-89
2022/08/02 13:37:55;;;;;;;;;;;26.50;91.70;;;;;;4973825;28;19926;-84
2022/08/02 13:40:23;;;;;;;;;;;26.60;91.60;;;;;;4983234;28;19930;-88
2022/08/02 13:42:51;;;;;;;;;;;26.80;91.50;;;;;;4981770;28;19926;-84
2022/08/02 13:45:19;;;;;;;;;;;26.80;91.40;;;;;;4964473;28;19930;-87
2022/08/02 13:47:48;;;;;;;;;;;26.90;91.40;;;;;;4967282;28;19933;-86
2022/08/02 13:50:35;;;;;;;;;;;27.10;91.40;;;;;;4966907;28;19934;-85
2022/08/02 13:53:03;;;;;;;;;;;27.40;90.90;;;;;;4949474;28;19941;-85
2022/08/02 13:55:31;;;;;;;;;;;27.60;90.60;;;;;;4972057;28;19937;-86
2022/08/02 13:57:58;;;;;;;;;;;27.60;90.40;;;;;;4969612;28;19930;-85
2022/08/02 14:00:26;;;;;;;;;;;27.50;90.30;;;;;;4972681;28;19927;-86
2022/08/02 14:03:06;;;;;;;;;;;27.30;90.60;;;;;;4954929;28;20322;-86
2022/08/02 14:05:37;;;;;;;;;;;27.20;90.70;;;;;;4969742;28;19941;-86
2022/08/02 14:08:18;;;;;;;;;;;27.00;90.90;;;;;;4980361;28;19930;-89
2022/08/02 14:10:47;;;;;;;;;;;26.90;91.10;;;;;;4965144;28;19930;-85
2022/08/02 14:13:15;;;;;;;;;;;27.00;90.90;;;;;;4963733;28;20081;-85
2022/08/02 14:15:42;;;;;;;;;;;27.00;91.00;;;;;;4967235;28;19926;-85
2022/08/02 14:18:10;;;;;;;;;;;26.90;91.00;;;;;;4963710;28;20064;-83
2022/08/02 14:20:38;;;;;;;;;;;26.80;91.10;;;;;;4964471;28;20238;-87
2022/08/02 14:23:05;;;;;;;;;;;26.80;91.00;;;;;;4965117;28;19956;-88
2022/08/02 14:25:33;;;;;;;;;;;26.80;91.10;;;;;;4966493;28;19930;-87
2022/08/02 14:28:02;;;;;;;;;;;26.80;91.30;;;;;;4962921;28;19933;-85
2022/08/02 14:30:29;;;;;;;;;;;26.80;91.30;;;;;;4949001;28;19926;-86
2022/08/02 14:32:57;;;;;;;;;;;26.90;91.30;;;;;;4963575;28;19926;-85
2022/08/02 14:35:25;;;;;;;;;;;27.00;91.10;;;;;;4966294;28;20361;-88
2022/08/02 14:37:54;;;;;;;;;;;27.10;91.10;;;;;;4963084;28;19930;-85
2022/08/02 14:40:25;;;;;;;;;;;27.10;91.10;;;;;;4963286;28;19957;-85
2022/08/02 14:42:59;;;;;;;;;;;27.30;91.10;;;;;;4963089;28;21261;-86
2022/08/02 14:45:28;;;;;;;;;;;27.30;91.10;;;;;;4976512;28;20373;-87
2022/08/02 14:48:08;;;;;;;;;;;27.40;90.90;;;;;;4947431;28;19939;-87
2022/08/02 14:50:36;;;;;;;;;;;27.50;90.80;;;;;;4966413;28;19934;-87